createdAt,value
2023-04-26T00:02:07.718Z,10.50
2023-04-26T00:04:38.383Z,5.90
2023-04-26T00:07:08.695Z,7.50
2023-04-26T00:09:41.621Z,5.90
2023-04-26T00:12:12.031Z,8.20
2023-04-26T00:14:42.136Z,6.50
2023-04-26T00:17:12.027Z,8.30
2023-04-26T00:19:41.920Z,7.20
2023-04-26T00:22:11.956Z,8.20
2023-04-26T00:24:42.036Z,9.70
2023-04-26T00:27:12.230Z,8.80
2023-04-26T00:29:43.261Z,7.00
2023-04-26T00:32:13.173Z,7.50
2023-04-26T00:34:43.113Z,7.90
2023-04-26T00:37:13.303Z,10.10
2023-04-26T00:39:43.238Z,6.60
2023-04-26T00:42:13.319Z,8.10
2023-04-26T00:44:43.615Z,6.40
2023-04-26T00:47:13.893Z,7.40
2023-04-26T00:49:44.203Z,10.00
2023-04-26T00:52:14.247Z,8.60
2023-04-26T00:54:44.118Z,8.30
2023-04-26T00:57:14.400Z,6.60
2023-04-26T00:59:44.419Z,8.80
2023-04-26T01:02:14.466Z,7.50
2023-04-26T01:04:45.861Z,8.90
2023-04-26T01:07:16.492Z,9.70
2023-04-26T01:09:46.419Z,8.30
2023-04-26T01:12:16.714Z,7.00
2023-04-26T01:14:47.176Z,7.00
2023-04-26T01:17:20.148Z,6.80
2023-04-26T01:19:50.779Z,9.90
2023-04-26T01:22:21.232Z,7.50
2023-04-26T01:24:53.067Z,8.20
2023-04-26T01:27:23.046Z,7.90
2023-04-26T01:29:53.012Z,6.90
2023-04-26T01:32:22.956Z,8.70
2023-04-26T01:34:52.790Z,9.10
2023-04-26T01:37:22.626Z,10.50
2023-04-26T01:39:52.590Z,6.70
2023-04-26T01:42:23.329Z,7.70
2023-04-26T01:44:54.199Z,7.70
2023-04-26T01:47:26.557Z,8.80
2023-04-26T01:49:56.474Z,7.00
2023-04-26T01:52:26.396Z,6.20
2023-04-26T01:54:57.443Z,7.50
2023-04-26T01:57:27.336Z,10.10
2023-04-26T01:59:57.470Z,6.00
2023-04-26T02:02:29.567Z,8.00
2023-04-26T02:05:00.060Z,8.40
2023-04-26T02:07:30.130Z,9.20
2023-04-26T02:10:00.014Z,6.30
2023-04-26T02:12:29.883Z,7.80
2023-04-26T02:15:00.047Z,7.00
2023-04-26T02:17:29.907Z,6.90
2023-04-26T02:20:00.163Z,6.90
2023-04-26T02:22:30.206Z,8.10
2023-04-26T02:25:00.335Z,6.30
2023-04-26T02:27:30.842Z,6.20
2023-04-26T02:30:00.979Z,6.50
2023-04-26T02:32:31.164Z,7.70
2023-04-26T02:35:01.550Z,6.30
2023-04-26T02:37:31.510Z,8.10
2023-04-26T02:40:01.742Z,7.50
2023-04-26T02:42:31.920Z,7.30
2023-04-26T02:45:02.086Z,8.30
2023-04-26T02:47:32.596Z,8.10
2023-04-26T02:50:02.588Z,7.20
2023-04-26T02:52:32.917Z,7.80
2023-04-26T02:55:03.169Z,6.60
2023-04-26T02:57:33.222Z,8.90
2023-04-26T03:00:05.637Z,7.40
2023-04-26T03:02:36.826Z,7.70
2023-04-26T03:05:07.674Z,8.50
2023-04-26T03:07:38.100Z,8.30
2023-04-26T03:10:10.356Z,9.20
2023-04-26T03:12:40.868Z,7.00
2023-04-26T03:15:11.862Z,10.90
2023-04-26T03:17:43.373Z,6.10
2023-04-26T03:20:14.436Z,8.40
2023-04-26T03:22:44.728Z,8.00
2023-04-26T03:25:16.318Z,9.10
2023-04-26T03:27:46.442Z,9.00
2023-04-26T03:30:18.074Z,9.20
2023-04-26T03:32:48.504Z,7.20
2023-04-26T03:35:18.785Z,8.70
2023-04-26T03:37:50.337Z,8.30
2023-04-26T03:40:21.215Z,6.70
2023-04-26T03:42:51.692Z,7.70
2023-04-26T03:45:21.813Z,6.10
2023-04-26T03:47:51.774Z,8.80
2023-04-26T03:50:22.363Z,8.60
2023-04-26T03:52:52.796Z,8.70
2023-04-26T03:55:23.251Z,11.00
2023-04-26T03:57:54.148Z,10.90
2023-04-26T04:00:26.078Z,11.40
2023-04-26T04:02:56.296Z,9.30
2023-04-26T04:05:27.374Z,9.10
2023-04-26T04:07:57.370Z,6.90
2023-04-26T04:10:27.915Z,7.60
2023-04-26T04:12:58.202Z,7.90
2023-04-26T04:15:28.663Z,6.20
2023-04-26T04:17:58.955Z,6.60
2023-04-26T04:20:28.908Z,7.30
2023-04-26T04:23:00.023Z,7.50
2023-04-26T04:25:30.449Z,7.00
2023-04-26T04:28:03.646Z,8.60
2023-04-26T04:30:34.518Z,9.20
2023-04-26T04:33:05.502Z,7.30
2023-04-26T04:35:36.948Z,7.20
2023-04-26T04:38:08.381Z,8.60
2023-04-26T04:40:38.744Z,8.50
2023-04-26T04:43:09.109Z,6.70
2023-04-26T04:45:39.379Z,9.40
2023-04-26T04:48:11.483Z,7.90
2023-04-26T04:50:42.795Z,8.10
2023-04-26T04:53:13.501Z,9.70
2023-04-26T04:55:44.206Z,7.50
2023-04-26T04:58:15.831Z,7.10
2023-04-26T05:00:46.843Z,6.60
2023-04-26T05:06:27.823Z,6.80
2023-04-26T05:08:57.977Z,6.70
2023-04-26T05:11:28.185Z,7.00
2023-04-26T05:13:59.390Z,5.70
2023-04-26T05:16:29.582Z,8.10
2023-04-26T05:19:00.812Z,7.50
2023-04-26T05:21:31.611Z,8.70
2023-04-26T05:24:01.950Z,7.20
2023-04-26T05:26:32.426Z,6.90
2023-04-26T05:29:32.036Z,6.30
2023-04-26T05:32:12.851Z,8.20
2023-04-26T05:34:42.947Z,7.20
2023-04-26T05:37:17.281Z,7.50
2023-04-26T05:39:47.282Z,8.90
2023-04-26T05:42:18.179Z,8.00
2023-04-26T05:44:48.490Z,8.20
2023-04-26T05:47:18.435Z,7.60
2023-04-26T05:49:48.557Z,7.50
2023-04-26T05:52:18.403Z,6.90
2023-04-26T05:54:48.412Z,9.10
2023-04-26T05:57:19.116Z,5.40
2023-04-26T05:59:49.079Z,7.00
2023-04-26T06:02:20.024Z,6.30
2023-04-26T06:04:50.299Z,7.50
2023-04-26T06:07:21.288Z,7.80
2023-04-26T06:09:51.535Z,7.70
2023-04-26T06:12:21.468Z,7.40
2023-04-26T06:14:51.488Z,7.10
2023-04-26T06:17:23.337Z,7.20
2023-04-26T06:19:53.766Z,7.40
2023-04-26T21:31:07.114Z,1.70
2023-04-26T21:33:38.800Z,1.40
2023-04-26T21:36:09.628Z,3.10
2023-04-26T21:38:40.357Z,1.80
2023-04-26T21:41:11.019Z,2.30
2023-04-26T21:43:41.281Z,1.40
2023-04-26T21:46:11.973Z,1.60
2023-04-26T21:48:42.308Z,1.90
2023-04-26T21:51:12.518Z,2.00
2023-04-26T21:53:43.083Z,1.70
2023-04-26T21:56:14.735Z,1.10
2023-04-26T21:58:44.993Z,3.00
2023-04-26T22:01:16.010Z,2.00
2023-04-26T22:03:46.365Z,2.50
2023-04-26T22:06:33.934Z,1.90
2023-04-26T22:09:04.889Z,4.10
2023-04-26T22:11:35.539Z,1.20
2023-04-26T22:14:05.743Z,1.90
2023-04-26T22:16:36.486Z,1.90
2023-04-26T22:19:06.743Z,1.50
2023-04-26T22:21:37.239Z,1.60
2023-04-26T22:24:08.458Z,1.90
2023-04-26T22:26:38.753Z,2.00
2023-04-26T22:29:09.278Z,1.00
2023-04-26T22:31:39.657Z,2.10
2023-04-26T22:34:09.907Z,4.10
2023-04-26T22:36:40.780Z,1.00
2023-04-26T22:39:11.716Z,1.30
2023-04-26T22:41:42.070Z,2.00
2023-04-26T22:44:12.314Z,1.20
2023-04-26T22:46:42.725Z,1.80
2023-04-26T22:49:13.048Z,1.90
2023-04-26T22:51:50.576Z,1.50
2023-04-26T22:54:28.020Z,2.70
2023-04-26T22:56:59.044Z,1.90
2023-04-26T22:59:29.812Z,2.50
2023-04-26T23:02:00.158Z,1.60
2023-04-26T23:04:31.188Z,1.70
2023-04-26T23:07:01.912Z,1.80
2023-04-26T23:09:32.343Z,1.00
2023-04-26T23:12:03.612Z,2.10
2023-04-26T23:14:35.356Z,1.70
2023-04-26T23:17:05.885Z,2.00
2023-04-26T23:19:36.658Z,1.40
2023-04-26T23:22:07.356Z,1.60
2023-04-26T23:24:37.668Z,2.40
2023-04-26T23:27:08.043Z,3.40
2023-04-26T23:29:38.483Z,2.00
2023-04-26T23:32:09.565Z,2.50
2023-04-26T23:34:40.137Z,1.80
2023-04-26T23:37:10.317Z,2.00
2023-04-26T23:39:40.745Z,2.30
2023-04-26T23:42:11.659Z,2.30
2023-04-26T23:44:42.022Z,2.50
2023-04-26T23:47:12.242Z,2.20
2023-04-26T23:49:42.740Z,3.40
2023-04-26T23:52:12.898Z,2.10
2023-04-26T23:54:43.118Z,3.00
2023-04-26T23:57:13.326Z,1.90
2023-04-26T23:59:43.617Z,1.80
